sensor_id;sensor_type;location;lat;lon;timestamp;temperature;humidity
80220;DHT22;70247;37.958;23.722;2023-05-19T00:00:58;21.30;63.40
80220;DHT22;70247;37.958;23.722;2023-05-19T00:03:25;21.30;63.90
80220;DHT22;70247;37.958;23.722;2023-05-19T00:05:55;21.30;63.80
80220;DHT22;70247;37.958;23.722;2023-05-19T00:08:23;21.30;63.80
80220;DHT22;70247;37.958;23.722;2023-05-19T00:10:49;21.30;63.00
80220;DHT22;70247;37.958;23.722;2023-05-19T00:13:15;21.30;63.20
80220;DHT22;70247;37.958;23.722;2023-05-19T00:15:41;21.30;63.60
80220;DHT22;70247;37.958;23.722;2023-05-19T00:18:06;21.30;63.80
80220;DHT22;70247;37.958;23.722;2023-05-19T00:20:33;21.30;63.60
80220;DHT22;70247;37.958;23.722;2023-05-19T00:22:59;21.30;62.30
80220;DHT22;70247;37.958;23.722;2023-05-19T00:25:24;21.30;62.20
80220;DHT22;70247;37.958;23.722;2023-05-19T00:27:51;21.30;63.00
80220;DHT22;70247;37.958;23.722;2023-05-19T00:30:17;21.40;62.40
80220;DHT22;70247;37.958;23.722;2023-05-19T00:32:42;21.30;61.60
80220;DHT22;70247;37.958;23.722;2023-05-19T00:35:08;21.30;62.20
80220;DHT22;70247;37.958;23.722;2023-05-19T00:37:34;21.30;63.40
80220;DHT22;70247;37.958;23.722;2023-05-19T00:40:00;21.30;62.60
80220;DHT22;70247;37.958;23.722;2023-05-19T00:42:25;21.30;62.50
80220;DHT22;70247;37.958;23.722;2023-05-19T00:44:52;21.30;62.30
80220;DHT22;70247;37.958;23.722;2023-05-19T00:47:18;21.30;62.20
80220;DHT22;70247;37.958;23.722;2023-05-19T00:49:43;21.30;62.00
80220;DHT22;70247;37.958;23.722;2023-05-19T00:52:09;21.30;63.10
80220;DHT22;70247;37.958;23.722;2023-05-19T00:54:35;21.20;61.80
80220;DHT22;70247;37.958;23.722;2023-05-19T00:57:01;21.30;60.90
80220;DHT22;70247;37.958;23.722;2023-05-19T00:59:27;21.30;60.80
80220;DHT22;70247;37.958;23.722;2023-05-19T01:01:52;21.30;59.50
80220;DHT22;70247;37.958;23.722;2023-05-19T01:04:18;21.40;60.00
80220;DHT22;70247;37.958;23.722;2023-05-19T01:06:47;21.40;60.60
80220;DHT22;70247;37.958;23.722;2023-05-19T01:09:15;21.40;59.90
80220;DHT22;70247;37.958;23.722;2023-05-19T01:11:41;21.40;60.20
80220;DHT22;70247;37.958;23.722;2023-05-19T01:14:07;21.40;59.30
80220;DHT22;70247;37.958;23.722;2023-05-19T01:32:57;21.30;58.90
80220;DHT22;70247;37.958;23.722;2023-05-19T01:35:24;21.30;58.60
80220;DHT22;70247;37.958;23.722;2023-05-19T01:37:55;21.20;58.90
80220;DHT22;70247;37.958;23.722;2023-05-19T01:40:22;21.20;59.20
80220;DHT22;70247;37.958;23.722;2023-05-19T01:42:51;21.20;59.10
80220;DHT22;70247;37.958;23.722;2023-05-19T01:45:17;21.20;57.60
80220;DHT22;70247;37.958;23.722;2023-05-19T01:47:46;21.30;58.00
80220;DHT22;70247;37.958;23.722;2023-05-19T01:50:12;21.20;57.40
80220;DHT22;70247;37.958;23.722;2023-05-19T01:52:38;21.30;58.00
80220;DHT22;70247;37.958;23.722;2023-05-19T01:55:05;21.20;58.20
80220;DHT22;70247;37.958;23.722;2023-05-19T02:08:28;21.30;58.20
80220;DHT22;70247;37.958;23.722;2023-05-19T02:11:01;21.30;58.30
80220;DHT22;70247;37.958;23.722;2023-05-19T02:13:30;21.20;58.30
80220;DHT22;70247;37.958;23.722;2023-05-19T02:16:03;21.20;58.00
80220;DHT22;70247;37.958;23.722;2023-05-19T02:18:30;21.20;57.90
80220;DHT22;70247;37.958;23.722;2023-05-19T02:20:56;21.20;57.70
80220;DHT22;70247;37.958;23.722;2023-05-19T02:23:22;21.20;58.20
80220;DHT22;70247;37.958;23.722;2023-05-19T02:25:48;21.20;59.10
80220;DHT22;70247;37.958;23.722;2023-05-19T02:28:13;21.10;59.70
80220;DHT22;70247;37.958;23.722;2023-05-19T02:30:39;21.00;60.70
80220;DHT22;70247;37.958;23.722;2023-05-19T02:33:05;21.00;61.70
80220;DHT22;70247;37.958;23.722;2023-05-19T02:35:31;20.90;63.70
80220;DHT22;70247;37.958;23.722;2023-05-19T02:37:58;20.90;64.20
80220;DHT22;70247;37.958;23.722;2023-05-19T02:40:24;20.80;64.80
80220;DHT22;70247;37.958;23.722;2023-05-19T02:42:49;20.80;65.50
80220;DHT22;70247;37.958;23.722;2023-05-19T02:45:15;20.80;65.50
80220;DHT22;70247;37.958;23.722;2023-05-19T02:47:41;20.80;65.70
80220;DHT22;70247;37.958;23.722;2023-05-19T02:50:07;20.70;66.50
80220;DHT22;70247;37.958;23.722;2023-05-19T02:52:33;20.70;65.70
80220;DHT22;70247;37.958;23.722;2023-05-19T02:54:59;20.70;65.90
80220;DHT22;70247;37.958;23.722;2023-05-19T02:57:25;20.60;65.80
80220;DHT22;70247;37.958;23.722;2023-05-19T02:59:51;20.60;66.20
80220;DHT22;70247;37.958;23.722;2023-05-19T03:02:17;20.50;66.00
80220;DHT22;70247;37.958;23.722;2023-05-19T03:04:43;20.50;66.80
80220;DHT22;70247;37.958;23.722;2023-05-19T03:07:10;20.50;66.90
80220;DHT22;70247;37.958;23.722;2023-05-19T03:09:38;20.50;67.70
80220;DHT22;70247;37.958;23.722;2023-05-19T03:12:04;20.50;67.30
80220;DHT22;70247;37.958;23.722;2023-05-19T03:14:32;20.50;66.00
80220;DHT22;70247;37.958;23.722;2023-05-19T03:16:58;20.40;66.80
80220;DHT22;70247;37.958;23.722;2023-05-19T03:19:25;20.40;66.00
80220;DHT22;70247;37.958;23.722;2023-05-19T03:21:51;20.40;67.50
80220;DHT22;70247;37.958;23.722;2023-05-19T03:24:17;20.40;68.00
80220;DHT22;70247;37.958;23.722;2023-05-19T03:26:43;20.40;68.10
80220;DHT22;70247;37.958;23.722;2023-05-19T03:29:09;20.40;67.90
80220;DHT22;70247;37.958;23.722;2023-05-19T03:31:34;20.40;67.90
80220;DHT22;70247;37.958;23.722;2023-05-19T03:34:00;20.40;67.40
80220;DHT22;70247;37.958;23.722;2023-05-19T03:36:26;20.40;67.80
80220;DHT22;70247;37.958;23.722;2023-05-19T03:38:57;20.30;68.30
80220;DHT22;70247;37.958;23.722;2023-05-19T03:41:23;20.40;67.00
80220;DHT22;70247;37.958;23.722;2023-05-19T03:43:49;20.40;67.50
80220;DHT22;70247;37.958;23.722;2023-05-19T03:46:15;20.30;66.40
80220;DHT22;70247;37.958;23.722;2023-05-19T03:48:41;20.40;66.40
80220;DHT22;70247;37.958;23.722;2023-05-19T03:51:06;20.40;66.60
80220;DHT22;70247;37.958;23.722;2023-05-19T03:53:33;20.40;66.60
80220;DHT22;70247;37.958;23.722;2023-05-19T03:55:59;20.50;66.90
80220;DHT22;70247;37.958;23.722;2023-05-19T03:58:25;20.40;66.90
80220;DHT22;70247;37.958;23.722;2023-05-19T04:00:51;20.50;66.30
80220;DHT22;70247;37.958;23.722;2023-05-19T04:03:19;20.50;66.80
80220;DHT22;70247;37.958;23.722;2023-05-19T04:05:45;20.50;67.30
80220;DHT22;70247;37.958;23.722;2023-05-19T04:08:11;20.60;66.70
80220;DHT22;70247;37.958;23.722;2023-05-19T04:10:36;20.60;66.50
80220;DHT22;70247;37.958;23.722;2023-05-19T04:13:02;20.60;66.80
80220;DHT22;70247;37.958;23.722;2023-05-19T04:15:28;20.60;66.80
80220;DHT22;70247;37.958;23.722;2023-05-19T04:17:54;20.60;67.40
80220;DHT22;70247;37.958;23.722;2023-05-19T04:20:20;20.70;67.30
80220;DHT22;70247;37.958;23.722;2023-05-19T04:22:46;20.70;67.50
80220;DHT22;70247;37.958;23.722;2023-05-19T04:25:11;20.80;66.60
80220;DHT22;70247;37.958;23.722;2023-05-19T04:27:37;20.80;66.20
80220;DHT22;70247;37.958;23.722;2023-05-19T04:30:04;20.90;66.90
80220;DHT22;70247;37.958;23.722;2023-05-19T04:32:30;21.00;66.40
80220;DHT22;70247;37.958;23.722;2023-05-19T04:34:56;21.00;65.90
80220;DHT22;70247;37.958;23.722;2023-05-19T04:37:26;21.10;64.40
80220;DHT22;70247;37.958;23.722;2023-05-19T04:39:52;21.10;63.70
80220;DHT22;70247;37.958;23.722;2023-05-19T04:42:18;21.10;62.90
80220;DHT22;70247;37.958;23.722;2023-05-19T04:44:45;21.20;61.40
80220;DHT22;70247;37.958;23.722;2023-05-19T04:47:11;21.30;61.50
80220;DHT22;70247;37.958;23.722;2023-05-19T04:49:37;21.30;62.30
80220;DHT22;70247;37.958;23.722;2023-05-19T04:52:06;21.40;62.40
80220;DHT22;70247;37.958;23.722;2023-05-19T04:54:33;21.40;61.70
80220;DHT22;70247;37.958;23.722;2023-05-19T04:56:59;21.50;62.70
80220;DHT22;70247;37.958;23.722;2023-05-19T04:59:25;21.50;61.40
80220;DHT22;70247;37.958;23.722;2023-05-19T05:01:53;21.50;61.60
80220;DHT22;70247;37.958;23.722;2023-05-19T05:04:20;21.50;60.70
80220;DHT22;70247;37.958;23.722;2023-05-19T05:06:46;21.50;60.80
80220;DHT22;70247;37.958;23.722;2023-05-19T05:09:16;21.50;61.20
80220;DHT22;70247;37.958;23.722;2023-05-19T05:11:43;21.60;60.40
80220;DHT22;70247;37.958;23.722;2023-05-19T05:14:09;21.60;59.40
80220;DHT22;70247;37.958;23.722;2023-05-19T05:16:35;21.70;60.00
80220;DHT22;70247;37.958;23.722;2023-05-19T05:19:01;21.70;59.90
80220;DHT22;70247;37.958;23.722;2023-05-19T05:21:28;21.80;57.90
80220;DHT22;70247;37.958;23.722;2023-05-19T05:23:54;21.80;57.80
80220;DHT22;70247;37.958;23.722;2023-05-19T05:26:20;21.80;56.90
80220;DHT22;70247;37.958;23.722;2023-05-19T05:28:49;21.90;56.10
80220;DHT22;70247;37.958;23.722;2023-05-19T05:31:15;21.90;55.00
80220;DHT22;70247;37.958;23.722;2023-05-19T05:33:41;21.90;55.70
80220;DHT22;70247;37.958;23.722;2023-05-19T05:36:07;22.00;55.10
80220;DHT22;70247;37.958;23.722;2023-05-19T05:38:33;22.00;54.50
80220;DHT22;70247;37.958;23.722;2023-05-19T05:40:59;22.00;55.80
80220;DHT22;70247;37.958;23.722;2023-05-19T05:43:26;22.00;53.50
80220;DHT22;70247;37.958;23.722;2023-05-19T05:45:52;22.10;53.70
80220;DHT22;70247;37.958;23.722;2023-05-19T05:48:17;22.10;54.20
80220;DHT22;70247;37.958;23.722;2023-05-19T05:50:44;22.20;53.70
80220;DHT22;70247;37.958;23.722;2023-05-19T05:53:18;22.20;54.20
80220;DHT22;70247;37.958;23.722;2023-05-19T05:55:47;22.30;53.70
80220;DHT22;70247;37.958;23.722;2023-05-19T05:58:13;22.30;54.00
80220;DHT22;70247;37.958;23.722;2023-05-19T06:00:41;22.40;52.40
80220;DHT22;70247;37.958;23.722;2023-05-19T06:03:09;22.40;51.50
80220;DHT22;70247;37.958;23.722;2023-05-19T06:05:36;22.40;50.70
80220;DHT22;70247;37.958;23.722;2023-05-19T06:08:02;22.50;50.50
80220;DHT22;70247;37.958;23.722;2023-05-19T06:10:28;22.50;51.00
80220;DHT22;70247;37.958;23.722;2023-05-19T06:12:57;22.50;51.20
80220;DHT22;70247;37.958;23.722;2023-05-19T06:15:23;22.60;51.20
80220;DHT22;70247;37.958;23.722;2023-05-19T06:17:50;22.60;50.60
80220;DHT22;70247;37.958;23.722;2023-05-19T06:20:17;22.60;52.00
80220;DHT22;70247;37.958;23.722;2023-05-19T06:22:42;22.60;49.90
80220;DHT22;70247;37.958;23.722;2023-05-19T06:25:08;22.60;51.20
80220;DHT22;70247;37.958;23.722;2023-05-19T06:27:35;22.70;50.20
80220;DHT22;70247;37.958;23.722;2023-05-19T06:30:01;22.90;48.70
80220;DHT22;70247;37.958;23.722;2023-05-19T06:32:26;23.00;49.00
80220;DHT22;70247;37.958;23.722;2023-05-19T06:34:57;23.20;49.60
80220;DHT22;70247;37.958;23.722;2023-05-19T06:37:24;23.40;47.70
80220;DHT22;70247;37.958;23.722;2023-05-19T06:39:52;23.40;47.60
80220;DHT22;70247;37.958;23.722;2023-05-19T06:42:21;23.50;47.10
80220;DHT22;70247;37.958;23.722;2023-05-19T06:44:48;23.60;47.20
80220;DHT22;70247;37.958;23.722;2023-05-19T06:47:15;23.90;46.20
80220;DHT22;70247;37.958;23.722;2023-05-19T06:49:40;24.20;46.60
80220;DHT22;70247;37.958;23.722;2023-05-19T06:52:07;24.40;44.30
80220;DHT22;70247;37.958;23.722;2023-05-19T06:54:32;24.50;43.40
80220;DHT22;70247;37.958;23.722;2023-05-19T06:56:58;24.50;43.80
80220;DHT22;70247;37.958;23.722;2023-05-19T06:59:24;24.50;43.80
80220;DHT22;70247;37.958;23.722;2023-05-19T07:01:50;24.50;42.60
80220;DHT22;70247;37.958;23.722;2023-05-19T07:04:16;24.50;43.60
80220;DHT22;70247;37.958;23.722;2023-05-19T07:06:41;24.60;43.40
80220;DHT22;70247;37.958;23.722;2023-05-19T07:09:08;24.70;43.50
80220;DHT22;70247;37.958;23.722;2023-05-19T07:11:34;24.70;41.80
80220;DHT22;70247;37.958;23.722;2023-05-19T07:14:00;24.80;42.20
80220;DHT22;70247;37.958;23.722;2023-05-19T07:16:26;24.90;41.50
80220;DHT22;70247;37.958;23.722;2023-05-19T07:18:52;24.90;41.70
80220;DHT22;70247;37.958;23.722;2023-05-19T07:21:23;25.10;41.60
80220;DHT22;70247;37.958;23.722;2023-05-19T07:23:49;25.20;39.50
80220;DHT22;70247;37.958;23.722;2023-05-19T07:26:15;25.20;40.70
80220;DHT22;70247;37.958;23.722;2023-05-19T07:28:41;25.20;40.70
80220;DHT22;70247;37.958;23.722;2023-05-19T07:31:08;25.30;41.70
80220;DHT22;70247;37.958;23.722;2023-05-19T07:33:35;25.30;40.70
80220;DHT22;70247;37.958;23.722;2023-05-19T07:36:01;25.30;40.70
80220;DHT22;70247;37.958;23.722;2023-05-19T07:38:27;25.10;41.60
80220;DHT22;70247;37.958;23.722;2023-05-19T07:40:55;24.90;40.30
80220;DHT22;70247;37.958;23.722;2023-05-19T07:43:21;24.80;40.50
80220;DHT22;70247;37.958;23.722;2023-05-19T07:45:58;24.70;41.90
80220;DHT22;70247;37.958;23.722;2023-05-19T07:48:25;24.70;40.70
80220;DHT22;70247;37.958;23.722;2023-05-19T07:50:51;24.60;40.60
80220;DHT22;70247;37.958;23.722;2023-05-19T07:53:18;24.60;41.90
80220;DHT22;70247;37.958;23.722;2023-05-19T07:55:45;24.60;40.60
80220;DHT22;70247;37.958;23.722;2023-05-19T07:58:11;24.60;41.00
80220;DHT22;70247;37.958;23.722;2023-05-19T08:00:36;24.70;40.40
80220;DHT22;70247;37.958;23.722;2023-05-19T08:03:02;24.60;40.10
80220;DHT22;70247;37.958;23.722;2023-05-19T08:05:28;24.70;40.70
80220;DHT22;70247;37.958;23.722;2023-05-19T08:07:56;24.80;40.90
80220;DHT22;70247;37.958;23.722;2023-05-19T08:10:22;24.80;40.00
80220;DHT22;70247;37.958;23.722;2023-05-19T08:12:48;24.80;39.10
80220;DHT22;70247;37.958;23.722;2023-05-19T08:15:14;24.80;38.70
80220;DHT22;70247;37.958;23.722;2023-05-19T08:17:40;24.90;39.30
80220;DHT22;70247;37.958;23.722;2023-05-19T08:20:07;24.90;37.30
80220;DHT22;70247;37.958;23.722;2023-05-19T08:22:35;25.00;39.60
80220;DHT22;70247;37.958;23.722;2023-05-19T08:25:01;25.10;38.70
80220;DHT22;70247;37.958;23.722;2023-05-19T08:27:32;25.10;38.70
80220;DHT22;70247;37.958;23.722;2023-05-19T08:29:58;25.10;38.00
80220;DHT22;70247;37.958;23.722;2023-05-19T08:32:24;25.20;38.60
80220;DHT22;70247;37.958;23.722;2023-05-19T08:34:50;25.20;38.00
80220;DHT22;70247;37.958;23.722;2023-05-19T08:37:16;25.20;37.90
80220;DHT22;70247;37.958;23.722;2023-05-19T08:39:42;25.10;38.70
80220;DHT22;70247;37.958;23.722;2023-05-19T08:42:08;25.20;38.20
80220;DHT22;70247;37.958;23.722;2023-05-19T08:44:35;25.30;38.20
80220;DHT22;70247;37.958;23.722;2023-05-19T08:47:03;25.60;36.20
80220;DHT22;70247;37.958;23.722;2023-05-19T08:49:43;25.80;36.70
80220;DHT22;70247;37.958;23.722;2023-05-19T08:52:16;26.00;35.80
80220;DHT22;70247;37.958;23.722;2023-05-19T08:55:01;26.50;36.70
80220;DHT22;70247;37.958;23.722;2023-05-19T08:57:29;27.20;33.90
80220;DHT22;70247;37.958;23.722;2023-05-19T08:59:57;27.60;34.60
80220;DHT22;70247;37.958;23.722;2023-05-19T09:02:24;28.00;33.40
80220;DHT22;70247;37.958;23.722;2023-05-19T09:04:51;28.80;33.50
80220;DHT22;70247;37.958;23.722;2023-05-19T09:07:17;29.50;30.90
80220;DHT22;70247;37.958;23.722;2023-05-19T09:09:44;30.80;29.20
80220;DHT22;70247;37.958;23.722;2023-05-19T09:12:10;32.60;27.50
80220;DHT22;70247;37.958;23.722;2023-05-19T09:14:36;34.70;26.60
80220;DHT22;70247;37.958;23.722;2023-05-19T09:17:02;36.70;25.00
80220;DHT22;70247;37.958;23.722;2023-05-19T09:19:28;38.30;23.40
80220;DHT22;70247;37.958;23.722;2023-05-19T09:21:58;39.10;21.90
80220;DHT22;70247;37.958;23.722;2023-05-19T09:24:26;39.70;21.90
80220;DHT22;70247;37.958;23.722;2023-05-19T09:26:55;40.10;20.80
80220;DHT22;70247;37.958;23.722;2023-05-19T09:29:24;39.50;21.20
80220;DHT22;70247;37.958;23.722;2023-05-19T09:31:52;39.70;19.60
80220;DHT22;70247;37.958;23.722;2023-05-19T09:34:19;40.50;19.90
80220;DHT22;70247;37.958;23.722;2023-05-19T09:36:47;41.90;20.10
80220;DHT22;70247;37.958;23.722;2023-05-19T09:39:21;43.10;19.30
80220;DHT22;70247;37.958;23.722;2023-05-19T09:41:54;44.40;18.20
80220;DHT22;70247;37.958;23.722;2023-05-19T09:44:23;45.30;18.10
80220;DHT22;70247;37.958;23.722;2023-05-19T09:46:54;45.00;16.90
80220;DHT22;70247;37.958;23.722;2023-05-19T09:49:25;43.40;18.10
80220;DHT22;70247;37.958;23.722;2023-05-19T09:51:54;42.10;19.40
80220;DHT22;70247;37.958;23.722;2023-05-19T09:54:21;41.90;18.70
80220;DHT22;70247;37.958;23.722;2023-05-19T09:57:06;41.80;18.40
80220;DHT22;70247;37.958;23.722;2023-05-19T09:59:33;41.50;19.50
80220;DHT22;70247;37.958;23.722;2023-05-19T10:02:00;41.80;19.70
80220;DHT22;70247;37.958;23.722;2023-05-19T10:04:28;40.50;20.20
80220;DHT22;70247;37.958;23.722;2023-05-19T10:06:56;38.70;20.80
80220;DHT22;70247;37.958;23.722;2023-05-19T10:09:25;37.20;22.70
80220;DHT22;70247;37.958;23.722;2023-05-19T10:11:51;37.40;21.90
80220;DHT22;70247;37.958;23.722;2023-05-19T10:14:22;37.80;21.40
80220;DHT22;70247;37.958;23.722;2023-05-19T10:16:52;37.00;21.70
80220;DHT22;70247;37.958;23.722;2023-05-19T10:19:23;35.90;22.50
80220;DHT22;70247;37.958;23.722;2023-05-19T10:21:49;34.90;23.70
80220;DHT22;70247;37.958;23.722;2023-05-19T10:24:15;34.50;24.00
80220;DHT22;70247;37.958;23.722;2023-05-19T10:27:06;34.40;23.80
80220;DHT22;70247;37.958;23.722;2023-05-19T10:29:36;33.70;24.20
80220;DHT22;70247;37.958;23.722;2023-05-19T10:32:10;32.90;25.70
80220;DHT22;70247;37.958;23.722;2023-05-19T10:40:17;36.10;22.70
80220;DHT22;70247;37.958;23.722;2023-05-19T10:45:50;36.40;22.90
80220;DHT22;70247;37.958;23.722;2023-05-19T10:48:18;35.30;24.90
80220;DHT22;70247;37.958;23.722;2023-05-19T10:50:48;34.60;25.50
80220;DHT22;70247;37.958;23.722;2023-05-19T10:53:14;33.70;25.60
80220;DHT22;70247;37.958;23.722;2023-05-19T10:55:54;33.10;25.90
80220;DHT22;70247;37.958;23.722;2023-05-19T10:58:48;32.50;26.10
80220;DHT22;70247;37.958;23.722;2023-05-19T11:01:18;31.70;26.40
80220;DHT22;70247;37.958;23.722;2023-05-19T11:03:49;31.10;27.50
80220;DHT22;70247;37.958;23.722;2023-05-19T11:08:51;30.40;28.50
80220;DHT22;70247;37.958;23.722;2023-05-19T11:11:16;30.10;27.60
80220;DHT22;70247;37.958;23.722;2023-05-19T11:13:46;29.70;28.10
80220;DHT22;70247;37.958;23.722;2023-05-19T11:16:13;29.50;29.30
80220;DHT22;70247;37.958;23.722;2023-05-19T11:18:39;29.50;29.10
80220;DHT22;70247;37.958;23.722;2023-05-19T11:21:05;29.40;28.80
80220;DHT22;70247;37.958;23.722;2023-05-19T11:23:37;29.10;28.50
80220;DHT22;70247;37.958;23.722;2023-05-19T11:26:05;28.70;29.80
80220;DHT22;70247;37.958;23.722;2023-05-19T11:28:32;28.70;32.10
80220;DHT22;70247;37.958;23.722;2023-05-19T11:30:59;28.70;30.20
80220;DHT22;70247;37.958;23.722;2023-05-19T11:33:26;28.80;30.50
80220;DHT22;70247;37.958;23.722;2023-05-19T11:35:56;29.10;30.00
80220;DHT22;70247;37.958;23.722;2023-05-19T11:38:26;29.30;30.40
80220;DHT22;70247;37.958;23.722;2023-05-19T11:40:53;29.40;29.70
80220;DHT22;70247;37.958;23.722;2023-05-19T11:43:22;29.40;28.70
80220;DHT22;70247;37.958;23.722;2023-05-19T11:45:48;29.50;29.20
80220;DHT22;70247;37.958;23.722;2023-05-19T11:48:13;29.70;28.90
80220;DHT22;70247;37.958;23.722;2023-05-19T11:50:42;29.60;28.20
80220;DHT22;70247;37.958;23.722;2023-05-19T11:53:11;29.50;30.00
80220;DHT22;70247;37.958;23.722;2023-05-19T11:55:46;29.40;28.70
80220;DHT22;70247;37.958;23.722;2023-05-19T11:58:12;29.30;28.60
80220;DHT22;70247;37.958;23.722;2023-05-19T12:00:40;29.60;28.40
80220;DHT22;70247;37.958;23.722;2023-05-19T12:03:06;29.70;28.20
80220;DHT22;70247;37.958;23.722;2023-05-19T12:05:36;29.80;28.70
80220;DHT22;70247;37.958;23.722;2023-05-19T12:08:02;29.90;30.40
80220;DHT22;70247;37.958;23.722;2023-05-19T12:10:30;29.90;29.00
80220;DHT22;70247;37.958;23.722;2023-05-19T12:12:58;29.90;28.20
80220;DHT22;70247;37.958;23.722;2023-05-19T12:15:25;29.90;28.70
80220;DHT22;70247;37.958;23.722;2023-05-19T12:17:56;29.70;28.10
80220;DHT22;70247;37.958;23.722;2023-05-19T12:20:23;29.70;28.00
80220;DHT22;70247;37.958;23.722;2023-05-19T12:22:50;29.60;30.60
80220;DHT22;70247;37.958;23.722;2023-05-19T12:25:16;29.40;32.00
80220;DHT22;70247;37.958;23.722;2023-05-19T12:27:42;29.30;31.90
80220;DHT22;70247;37.958;23.722;2023-05-19T12:30:10;29.20;33.20
80220;DHT22;70247;37.958;23.722;2023-05-19T12:32:37;29.20;34.10
80220;DHT22;70247;37.958;23.722;2023-05-19T12:35:04;28.90;33.50
80220;DHT22;70247;37.958;23.722;2023-05-19T12:37:31;28.80;36.10
80220;DHT22;70247;37.958;23.722;2023-05-19T12:39:58;28.50;34.60
80220;DHT22;70247;37.958;23.722;2023-05-19T12:42:27;28.30;37.10
80220;DHT22;70247;37.958;23.722;2023-05-19T12:44:58;28.10;38.80
80220;DHT22;70247;37.958;23.722;2023-05-19T12:47:30;28.00;38.00
80220;DHT22;70247;37.958;23.722;2023-05-19T12:52:26;27.60;36.20
80220;DHT22;70247;37.958;23.722;2023-05-19T12:54:59;27.50;36.60
80220;DHT22;70247;37.958;23.722;2023-05-19T12:57:27;27.40;36.40
80220;DHT22;70247;37.958;23.722;2023-05-19T13:00:20;27.20;37.20
80220;DHT22;70247;37.958;23.722;2023-05-19T13:03:05;27.20;37.60
80220;DHT22;70247;37.958;23.722;2023-05-19T13:05:38;27.30;38.50
80220;DHT22;70247;37.958;23.722;2023-05-19T13:08:09;27.20;37.60
80220;DHT22;70247;37.958;23.722;2023-05-19T13:10:37;27.20;37.30
80220;DHT22;70247;37.958;23.722;2023-05-19T13:13:03;27.00;37.50
80220;DHT22;70247;37.958;23.722;2023-05-19T13:15:31;27.00;35.70
80220;DHT22;70247;37.958;23.722;2023-05-19T13:18:00;26.90;36.60
80220;DHT22;70247;37.958;23.722;2023-05-19T13:20:26;27.00;36.60
80220;DHT22;70247;37.958;23.722;2023-05-19T13:22:52;27.00;36.80
80220;DHT22;70247;37.958;23.722;2023-05-19T13:25:18;27.00;36.50
80220;DHT22;70247;37.958;23.722;2023-05-19T13:27:44;27.00;35.50
80220;DHT22;70247;37.958;23.722;2023-05-19T13:30:11;26.90;34.00
80220;DHT22;70247;37.958;23.722;2023-05-19T13:32:37;27.00;36.10
80220;DHT22;70247;37.958;23.722;2023-05-19T13:35:03;27.00;35.40
80220;DHT22;70247;37.958;23.722;2023-05-19T13:37:29;26.90;37.70
80220;DHT22;70247;37.958;23.722;2023-05-19T13:39:55;26.80;38.10
80220;DHT22;70247;37.958;23.722;2023-05-19T13:42:22;26.90;39.20
80220;DHT22;70247;37.958;23.722;2023-05-19T13:44:48;26.90;39.30
80220;DHT22;70247;37.958;23.722;2023-05-19T13:47:14;26.80;38.30
80220;DHT22;70247;37.958;23.722;2023-05-19T13:49:40;26.60;39.50
80220;DHT22;70247;37.958;23.722;2023-05-19T13:52:06;26.60;40.10
80220;DHT22;70247;37.958;23.722;2023-05-19T13:54:32;26.30;38.40
80220;DHT22;70247;37.958;23.722;2023-05-19T13:56:59;26.20;39.90
80220;DHT22;70247;37.958;23.722;2023-05-19T13:59:25;26.00;39.80
80220;DHT22;70247;37.958;23.722;2023-05-19T14:01:51;26.00;40.10
80220;DHT22;70247;37.958;23.722;2023-05-19T14:04:17;25.90;41.90
80220;DHT22;70247;37.958;23.722;2023-05-19T14:06:44;26.00;40.60
80220;DHT22;70247;37.958;23.722;2023-05-19T14:09:11;25.90;39.20
80220;DHT22;70247;37.958;23.722;2023-05-19T14:11:37;25.90;39.10
80220;DHT22;70247;37.958;23.722;2023-05-19T14:14:03;25.90;38.90
80220;DHT22;70247;37.958;23.722;2023-05-19T14:16:29;25.90;38.50
80220;DHT22;70247;37.958;23.722;2023-05-19T14:18:55;25.80;38.60
80220;DHT22;70247;37.958;23.722;2023-05-19T14:21:21;25.80;38.60
80220;DHT22;70247;37.958;23.722;2023-05-19T14:23:47;25.80;39.20
80220;DHT22;70247;37.958;23.722;2023-05-19T14:26:13;25.90;38.70
80220;DHT22;70247;37.958;23.722;2023-05-19T14:28:39;25.90;38.40
80220;DHT22;70247;37.958;23.722;2023-05-19T14:31:09;25.90;37.50
80220;DHT22;70247;37.958;23.722;2023-05-19T14:33:35;25.90;37.60
80220;DHT22;70247;37.958;23.722;2023-05-19T14:36:01;25.90;37.30
80220;DHT22;70247;37.958;23.722;2023-05-19T14:38:27;25.90;37.80
80220;DHT22;70247;37.958;23.722;2023-05-19T14:40:53;26.00;38.30
80220;DHT22;70247;37.958;23.722;2023-05-19T14:43:19;26.00;38.70
80220;DHT22;70247;37.958;23.722;2023-05-19T14:45:45;26.00;38.90
80220;DHT22;70247;37.958;23.722;2023-05-19T14:48:11;25.90;38.70
80220;DHT22;70247;37.958;23.722;2023-05-19T14:50:37;25.90;39.30
80220;DHT22;70247;37.958;23.722;2023-05-19T14:53:03;25.90;38.50
80220;DHT22;70247;37.958;23.722;2023-05-19T14:55:29;25.90;39.30
80220;DHT22;70247;37.958;23.722;2023-05-19T14:57:55;25.90;38.70
80220;DHT22;70247;37.958;23.722;2023-05-19T15:00:21;26.00;39.10
80220;DHT22;70247;37.958;23.722;2023-05-19T15:02:51;26.00;38.30
80220;DHT22;70247;37.958;23.722;2023-05-19T15:05:16;26.10;39.20
80220;DHT22;70247;37.958;23.722;2023-05-19T15:07:42;26.10;38.70
80220;DHT22;70247;37.958;23.722;2023-05-19T15:10:08;26.10;38.00
80220;DHT22;70247;37.958;23.722;2023-05-19T15:12:34;26.10;38.30
80220;DHT22;70247;37.958;23.722;2023-05-19T15:15:00;26.00;37.50
80220;DHT22;70247;37.958;23.722;2023-05-19T15:17:26;25.90;37.80
80220;DHT22;70247;37.958;23.722;2023-05-19T15:19:52;25.80;37.50
80220;DHT22;70247;37.958;23.722;2023-05-19T15:22:18;25.60;37.00
80220;DHT22;70247;37.958;23.722;2023-05-19T15:24:43;25.60;38.10
80220;DHT22;70247;37.958;23.722;2023-05-19T15:27:09;25.60;38.40
80220;DHT22;70247;37.958;23.722;2023-05-19T15:29:35;25.60;37.40
80220;DHT22;70247;37.958;23.722;2023-05-19T15:32:01;25.60;37.60
80220;DHT22;70247;37.958;23.722;2023-05-19T15:34:27;25.60;37.10
80220;DHT22;70247;37.958;23.722;2023-05-19T15:36:53;25.60;37.10
80220;DHT22;70247;37.958;23.722;2023-05-19T15:39:19;25.50;37.10
80220;DHT22;70247;37.958;23.722;2023-05-19T15:41:45;25.50;37.50
80220;DHT22;70247;37.958;23.722;2023-05-19T15:44:11;25.50;38.00
80220;DHT22;70247;37.958;23.722;2023-05-19T15:46:37;25.40;38.20
80220;DHT22;70247;37.958;23.722;2023-05-19T15:49:03;25.30;38.70
80220;DHT22;70247;37.958;23.722;2023-05-19T15:51:29;25.30;38.90
80220;DHT22;70247;37.958;23.722;2023-05-19T15:53:55;25.30;40.00
80220;DHT22;70247;37.958;23.722;2023-05-19T15:56:21;25.30;41.20